createdAt,value
2023-01-03T00:02:47.543Z,8.31
2023-01-03T00:05:50.470Z,8.31
2023-01-03T00:08:54.865Z,8.38
2023-01-03T00:12:15.713Z,8.30
2023-01-03T00:15:18.360Z,8.44
2023-01-03T00:18:20.655Z,8.45
2023-01-03T00:21:23.003Z,8.17
2023-01-03T00:24:25.538Z,8.34
2023-01-03T00:27:28.353Z,8.26
2023-01-03T00:30:31.886Z,8.30
2023-01-03T00:33:35.728Z,8.17
2023-01-03T00:36:38.772Z,7.95
2023-01-03T00:39:41.299Z,8.34
2023-01-03T00:43:02.272Z,8.15
2023-01-03T00:46:06.288Z,7.78
2023-01-03T00:49:09.505Z,8.19
2023-01-03T00:52:11.845Z,8.11
2023-01-03T00:55:14.199Z,7.94
2023-01-03T00:58:17.019Z,7.97
2023-01-03T01:01:23.614Z,8.07
2023-01-03T01:04:31.206Z,7.85
2023-01-03T01:07:33.566Z,8.02
2023-01-03T01:10:35.886Z,8.14
2023-01-03T01:13:38.555Z,8.02
2023-01-03T01:16:41.049Z,7.79
2023-01-03T01:19:44.742Z,7.94
2023-01-03T01:22:47.155Z,7.93
2023-01-03T01:25:49.503Z,7.99
2023-01-03T01:28:52.919Z,7.75
2023-01-03T01:31:55.196Z,7.72
2023-01-03T01:34:57.581Z,7.43
2023-01-03T01:38:00.002Z,7.51
2023-01-03T01:41:02.990Z,7.46
2023-01-03T01:44:24.620Z,7.27
2023-01-03T01:47:35.683Z,7.19
2023-01-03T01:50:54.642Z,7.19
2023-01-03T01:53:59.776Z,7.09
2023-01-03T01:57:02.157Z,7.14
2023-01-03T02:00:06.497Z,7.23
2023-01-03T02:03:08.738Z,7.20
2023-01-03T02:06:13.522Z,7.08
2023-01-03T02:09:15.927Z,6.96
2023-01-03T02:13:00.025Z,7.03
2023-01-03T02:16:32.212Z,6.62
2023-01-03T02:20:08.580Z,6.76
2023-01-03T02:23:39.548Z,7.05
2023-01-03T02:27:09.990Z,7.11
2023-01-03T02:30:29.281Z,6.95
2023-01-03T02:33:53.697Z,6.63
2023-01-03T02:36:59.233Z,6.43
2023-01-03T02:40:22.912Z,6.40
2023-01-03T02:43:34.008Z,6.40
2023-01-03T02:46:44.602Z,6.46
2023-01-03T02:49:50.085Z,6.37
2023-01-03T02:52:54.166Z,6.14
2023-01-03T02:55:59.209Z,6.26
2023-01-03T02:59:07.109Z,5.97
2023-01-03T03:02:10.074Z,5.94
2023-01-03T03:05:15.884Z,5.94
2023-01-03T03:08:18.321Z,5.85
2023-01-03T03:11:39.275Z,5.68
2023-01-03T03:14:46.410Z,6.21
2023-01-03T03:17:48.777Z,6.08
2023-01-03T03:21:10.365Z,6.24
2023-01-03T03:24:38.841Z,6.34
2023-01-03T03:28:02.269Z,6.23
2023-01-03T03:31:08.173Z,6.19
2023-01-03T03:34:14.863Z,6.12
2023-01-03T03:37:19.182Z,6.16
2023-01-03T03:40:42.581Z,6.09
2023-01-03T03:44:10.343Z,6.07
2023-01-03T03:47:24.633Z,6.03
2023-01-03T03:51:01.167Z,6.04
2023-01-03T03:54:11.154Z,6.07
2023-01-03T03:57:18.638Z,5.98
2023-01-03T04:00:24.537Z,5.95
2023-01-03T04:03:27.560Z,5.52
2023-01-03T04:06:38.030Z,5.51
2023-01-03T04:09:40.570Z,5.52
2023-01-03T04:12:42.909Z,5.42
2023-01-03T04:15:45.237Z,5.46
2023-01-03T04:18:47.589Z,5.37
2023-01-03T04:21:49.997Z,5.39
2023-01-03T04:24:52.496Z,5.66
2023-01-03T04:27:55.014Z,5.44
2023-01-03T04:30:58.168Z,5.66
2023-01-03T04:34:00.537Z,5.50
2023-01-03T04:37:03.022Z,5.87
2023-01-03T04:40:05.800Z,5.93
2023-01-03T04:43:26.947Z,5.91
2023-01-03T04:46:37.480Z,5.95
2023-01-03T04:49:40.049Z,6.14
2023-01-03T04:52:42.403Z,5.95
2023-01-03T04:55:48.835Z,6.15
2023-01-03T04:58:51.227Z,6.11
2023-01-03T05:01:53.672Z,6.17
2023-01-03T05:04:56.065Z,6.02
2023-01-03T05:07:58.463Z,6.14
2023-01-03T05:11:00.722Z,6.27
2023-01-03T05:14:03.167Z,6.41
2023-01-03T05:17:05.592Z,6.10
2023-01-03T05:20:27.424Z,6.04
2023-01-03T05:23:48.566Z,5.95
2023-01-03T05:26:51.189Z,5.97
2023-01-03T05:29:54.177Z,5.39
2023-01-03T05:32:56.507Z,5.81
2023-01-03T05:35:58.833Z,5.74
2023-01-03T05:39:01.694Z,5.92
2023-01-03T05:42:04.490Z,5.80
2023-01-03T05:45:07.459Z,5.52
2023-01-03T05:48:10.493Z,5.53
2023-01-03T05:51:12.814Z,5.49
2023-01-03T05:54:16.342Z,5.36
2023-01-03T05:57:18.912Z,5.58
2023-01-03T06:00:21.452Z,5.30
2023-01-03T06:03:23.847Z,5.41
2023-01-03T06:06:26.420Z,5.40
2023-01-03T06:09:28.829Z,5.31
2023-01-03T06:12:31.141Z,5.29
2023-01-03T06:15:33.473Z,4.87
2023-01-03T06:18:36.761Z,4.93
2023-01-03T06:21:40.404Z,5.16
2023-01-03T06:24:42.729Z,5.14
2023-01-03T06:27:45.622Z,4.94
2023-01-03T06:30:47.998Z,5.03
2023-01-03T06:33:50.509Z,4.93
2023-01-03T06:36:52.755Z,4.81
2023-01-03T06:39:55.556Z,4.79
2023-01-03T06:42:58.174Z,4.85
2023-01-03T06:46:20.142Z,4.75
2023-01-03T06:49:41.008Z,4.48
2023-01-03T06:53:02.256Z,4.47
2023-01-03T06:56:05.369Z,4.82
2023-01-03T06:59:07.778Z,4.71
2023-01-03T07:02:10.368Z,4.51
2023-01-03T07:05:13.185Z,4.56
2023-01-03T07:08:15.611Z,4.23
2023-01-03T07:11:17.937Z,4.39
2023-01-03T07:14:20.427Z,4.55
2023-01-03T07:17:22.900Z,4.58
2023-01-03T07:20:25.235Z,4.59
2023-01-03T07:23:27.529Z,4.40
2023-01-03T07:26:31.366Z,4.26
2023-01-03T07:29:33.831Z,4.24
2023-01-03T07:32:36.150Z,4.02
2023-01-03T07:35:38.759Z,4.09
2023-01-03T07:38:43.000Z,4.57
2023-01-03T07:42:04.343Z,4.40
2023-01-03T07:45:07.480Z,4.67
2023-01-03T07:48:11.111Z,4.69
2023-01-03T07:51:15.028Z,4.71
2023-01-03T07:54:17.329Z,4.46
2023-01-03T07:57:19.750Z,4.59
2023-01-03T08:00:22.394Z,4.97
2023-01-03T08:03:24.852Z,4.76
2023-01-03T08:06:27.263Z,4.77
2023-01-03T08:09:48.189Z,4.62
2023-01-03T08:13:12.209Z,4.50
2023-01-03T08:16:16.343Z,4.62
2023-01-03T08:19:18.618Z,4.74
2023-01-03T08:22:20.965Z,4.64
2023-01-03T08:25:23.305Z,4.78
2023-01-03T08:28:25.791Z,4.92
2023-01-03T08:31:29.454Z,4.88
2023-01-03T08:34:36.392Z,4.78
2023-01-03T08:37:38.877Z,4.52
2023-01-03T08:40:42.775Z,4.61
2023-01-03T08:43:45.834Z,4.84
2023-01-03T08:46:50.702Z,4.81
2023-01-03T08:49:53.112Z,4.88
2023-01-03T08:52:55.410Z,4.86
2023-01-03T08:55:57.820Z,4.90
2023-01-03T08:59:00.243Z,4.80
2023-01-03T09:02:03.288Z,4.74
2023-01-03T09:05:06.235Z,5.04
2023-01-03T09:08:08.723Z,4.64
2023-01-03T09:11:11.499Z,4.63
2023-01-03T09:14:13.993Z,4.77
2023-01-03T09:17:16.375Z,4.81
2023-01-03T09:20:19.089Z,4.81
2023-01-03T09:23:21.466Z,4.73
2023-01-03T09:26:23.853Z,4.70
2023-01-03T09:29:26.711Z,4.91
2023-01-03T09:32:29.062Z,5.24
2023-01-03T09:35:34.168Z,5.31
2023-01-03T09:38:36.918Z,5.81
2023-01-03T09:41:40.067Z,5.48
2023-01-03T09:44:42.644Z,5.44
2023-01-03T09:47:45.644Z,5.35
2023-01-03T09:51:17.148Z,5.55
2023-01-03T09:54:42.402Z,5.50
2023-01-03T09:58:03.652Z,5.72
2023-01-03T10:01:39.980Z,5.59
2023-01-03T10:04:51.330Z,5.64
2023-01-03T10:07:56.604Z,5.51
2023-01-03T10:11:26.176Z,5.70
2023-01-03T10:14:28.379Z,5.37
2023-01-03T10:17:51.638Z,5.58
2023-01-03T10:21:01.075Z,5.58
2023-01-03T10:24:17.921Z,5.49
2023-01-03T10:27:22.571Z,5.70
2023-01-03T10:30:58.357Z,5.50
2023-01-03T10:34:06.260Z,5.51
2023-01-03T10:37:18.024Z,5.51
2023-01-03T10:40:20.495Z,5.44
2023-01-03T10:43:29.542Z,5.76
2023-01-03T10:46:32.431Z,5.58
2023-01-03T10:49:35.042Z,5.45
2023-01-03T10:52:41.411Z,5.49
2023-01-03T10:55:50.623Z,5.40
2023-01-03T10:59:25.222Z,5.59
2023-01-03T11:02:27.713Z,5.74
2023-01-03T11:05:30.217Z,5.35
2023-01-03T11:08:58.512Z,5.40
2023-01-03T11:12:05.128Z,5.69
2023-01-03T11:15:26.330Z,5.58
2023-01-03T11:18:29.799Z,5.55
2023-01-03T11:22:05.609Z,5.75
2023-01-03T11:25:16.691Z,5.45
2023-01-03T11:28:54.244Z,5.73
2023-01-03T11:32:19.681Z,5.44
2023-01-03T11:35:50.019Z,5.44
2023-01-03T11:39:27.936Z,5.75
2023-01-03T11:42:41.963Z,5.50
2023-01-03T11:45:59.427Z,5.77
2023-01-03T11:49:28.094Z,5.48
2023-01-03T11:52:50.824Z,5.82
2023-01-03T11:56:19.309Z,5.59
2023-01-03T11:59:40.621Z,5.73
2023-01-03T12:02:59.214Z,5.66
2023-01-03T12:06:09.555Z,5.43
2023-01-03T12:09:33.764Z,5.76
2023-01-03T12:12:45.052Z,5.74
2023-01-03T12:15:51.330Z,5.47
2023-01-03T12:19:15.403Z,5.45
2023-01-03T12:22:45.360Z,5.55
2023-01-03T12:25:51.223Z,5.34
2023-01-03T12:28:58.814Z,5.81
2023-01-03T12:32:05.367Z,5.56
2023-01-03T12:35:25.011Z,5.70
2023-01-03T12:38:33.663Z,5.32
2023-01-03T12:42:22.752Z,5.68
2023-01-03T12:45:58.442Z,5.57
2023-01-03T12:49:17.990Z,5.66
2023-01-03T12:52:23.822Z,5.40
2023-01-03T12:56:07.141Z,5.29
2023-01-03T12:59:15.548Z,5.31
2023-01-03T13:02:36.271Z,5.37
2023-01-03T13:05:43.206Z,5.50
2023-01-03T13:08:50.430Z,5.59
2023-01-03T13:11:54.654Z,5.30
2023-01-03T13:14:57.583Z,5.52
2023-01-03T13:18:24.070Z,5.64
2023-01-03T13:22:02.968Z,5.39
2023-01-03T13:25:34.194Z,5.26
2023-01-03T13:28:37.918Z,5.30
2023-01-03T13:31:41.312Z,4.86
2023-01-03T13:34:44.073Z,5.08
2023-01-03T13:37:48.618Z,4.98
2023-01-03T13:41:19.990Z,4.78
2023-01-03T13:44:23.539Z,5.04
2023-01-03T13:47:41.686Z,5.23
2023-01-03T13:51:03.411Z,5.07
2023-01-03T13:54:11.218Z,5.15
2023-01-03T13:57:37.873Z,4.84
2023-01-03T14:00:41.068Z,5.00
2023-01-03T14:04:14.734Z,4.96
2023-01-03T14:07:35.538Z,5.06
2023-01-03T14:10:59.787Z,4.96
2023-01-03T14:14:08.695Z,4.84
2023-01-03T14:17:22.042Z,5.05
2023-01-03T14:20:30.159Z,4.93
2023-01-03T14:23:59.151Z,4.85
2023-01-03T14:26:55.515Z,4.77
2023-01-03T14:29:57.871Z,4.94
2023-01-03T14:33:00.421Z,4.76
2023-01-03T14:36:14.399Z,4.97
2023-01-03T14:39:23.109Z,4.60
2023-01-03T14:42:26.098Z,4.56
2023-01-03T14:45:28.953Z,4.58
2023-01-03T14:48:31.412Z,4.68
2023-01-03T14:51:35.551Z,4.36
2023-01-03T14:54:37.880Z,4.50
2023-01-03T14:57:40.604Z,4.35
2023-01-03T15:00:43.305Z,4.15
2023-01-03T15:03:47.695Z,3.82
2023-01-03T15:07:03.391Z,3.85
2023-01-03T15:10:11.673Z,3.94
2023-01-03T15:13:30.259Z,4.20
2023-01-03T15:16:36.438Z,4.11
2023-01-03T15:19:46.756Z,4.24
2023-01-03T15:22:50.379Z,4.10
2023-01-03T15:25:53.254Z,3.70
2023-01-03T15:29:15.419Z,3.79
2023-01-03T15:32:19.646Z,3.80
2023-01-03T15:35:35.754Z,3.91
2023-01-03T15:38:40.044Z,3.74
2023-01-03T15:42:34.569Z,4.11
2023-01-03T15:45:26.998Z,4.13
2023-01-03T15:48:29.907Z,4.13
2023-01-03T15:51:32.295Z,3.92
2023-01-03T15:54:34.869Z,4.18
2023-01-03T15:57:37.285Z,4.29
2023-01-03T16:00:39.748Z,4.15
2023-01-03T16:03:42.353Z,4.31
2023-01-03T16:06:44.691Z,4.29
2023-01-03T16:09:47.104Z,4.15
2023-01-03T16:12:49.382Z,4.20
2023-01-03T16:15:52.799Z,4.21
2023-01-03T16:18:57.022Z,4.12
2023-01-03T16:22:33.217Z,4.09
2023-01-03T16:25:25.715Z,4.03
2023-01-03T16:28:28.337Z,3.88
2023-01-03T16:31:32.727Z,3.64
2023-01-03T16:34:35.319Z,3.40
2023-01-03T16:37:37.656Z,3.44
2023-01-03T16:40:40.024Z,3.62
2023-01-03T16:43:42.414Z,3.87
2023-01-03T16:46:45.835Z,3.78
2023-01-03T16:49:52.255Z,3.75
2023-01-03T16:52:57.204Z,3.66
2023-01-03T16:55:59.612Z,3.65
2023-01-03T16:59:03.523Z,3.59
2023-01-03T17:02:07.177Z,3.80
2023-01-03T17:05:10.173Z,3.82
2023-01-03T17:08:17.307Z,3.75
2023-01-03T17:11:19.628Z,3.69
2023-01-03T17:14:22.845Z,3.74
2023-01-03T17:17:25.144Z,3.95
2023-01-03T17:20:27.545Z,4.00
2023-01-03T17:23:33.447Z,3.78
2023-01-03T17:26:36.598Z,3.67
2023-01-03T17:29:39.548Z,3.59
2023-01-03T17:32:42.181Z,3.49
2023-01-03T17:35:46.100Z,3.60
2023-01-03T17:38:48.515Z,3.54
2023-01-03T17:42:11.585Z,3.53
2023-01-03T17:45:32.956Z,3.60
2023-01-03T17:48:54.118Z,3.62
2023-01-03T17:52:06.379Z,3.71
2023-01-03T17:55:19.798Z,3.80
2023-01-03T17:58:38.315Z,3.79
2023-01-03T18:01:41.577Z,3.56
2023-01-03T18:05:14.132Z,3.61
2023-01-03T18:08:07.028Z,3.81
2023-01-03T18:11:15.421Z,3.75
2023-01-03T18:14:17.798Z,3.84
2023-01-03T18:17:31.498Z,3.82
2023-01-03T18:20:33.925Z,3.70
2023-01-03T18:23:38.325Z,3.75
2023-01-03T18:26:43.943Z,3.49
2023-01-03T18:29:46.250Z,3.39
2023-01-03T18:32:48.657Z,3.03
2023-01-03T18:35:52.669Z,2.93
2023-01-03T18:38:56.829Z,2.78
2023-01-03T18:42:19.166Z,2.99
2023-01-03T18:45:21.559Z,2.82
2023-01-03T18:48:24.080Z,2.68
2023-01-03T18:51:29.369Z,2.60
2023-01-03T18:54:31.876Z,2.62
2023-01-03T18:57:34.385Z,2.62
2023-01-03T19:00:36.767Z,2.67
2023-01-03T19:03:40.198Z,2.44
2023-01-03T19:06:45.586Z,2.33
2023-01-03T19:09:47.989Z,2.35
2023-01-03T19:12:52.103Z,2.32
2023-01-03T19:15:54.963Z,2.21
2023-01-03T19:18:57.567Z,2.49
2023-01-03T19:21:59.972Z,2.36
2023-01-03T19:25:06.113Z,2.77
2023-01-03T19:28:11.432Z,3.01
2023-01-03T19:31:13.757Z,2.89
2023-01-03T19:34:34.741Z,3.02
2023-01-03T19:37:37.200Z,2.68
2023-01-03T19:40:40.922Z,2.76
2023-01-03T19:43:43.363Z,2.41
2023-01-03T19:46:45.709Z,2.38
2023-01-03T19:49:48.548Z,2.36
2023-01-03T19:52:51.538Z,2.27
2023-01-03T19:55:53.966Z,2.30
2023-01-03T19:59:02.732Z,2.19
2023-01-03T20:02:34.852Z,2.64
2023-01-03T20:05:37.498Z,2.98
2023-01-03T20:08:39.917Z,3.04
2023-01-03T20:11:42.443Z,3.07
2023-01-03T20:14:50.706Z,2.74
2023-01-03T20:17:53.816Z,2.69
2023-01-03T20:20:58.412Z,2.67
2023-01-03T20:24:02.101Z,2.83
2023-01-03T20:27:04.552Z,2.88
2023-01-03T20:30:15.656Z,2.70
2023-01-03T20:33:18.008Z,2.63
2023-01-03T20:36:24.177Z,2.96
2023-01-03T20:39:33.087Z,3.19
2023-01-03T20:42:35.421Z,3.04
2023-01-03T20:45:38.280Z,2.92
2023-01-03T20:48:40.751Z,3.01
2023-01-03T20:51:43.162Z,3.00
2023-01-03T20:54:45.502Z,3.02
2023-01-03T20:57:48.483Z,3.07
2023-01-03T21:00:51.023Z,3.12
2023-01-03T21:03:53.492Z,3.00
2023-01-03T21:06:55.827Z,2.98
2023-01-03T21:09:58.154Z,3.00
2023-01-03T21:13:00.766Z,2.85
2023-01-03T21:16:03.123Z,2.50
2023-01-03T21:19:22.289Z,2.40
2023-01-03T21:22:24.604Z,2.32
2023-01-03T21:25:35.194Z,2.32
2023-01-03T21:28:37.590Z,2.22
2023-01-03T21:31:42.429Z,2.14
2023-01-03T21:34:44.953Z,2.08
2023-01-03T21:37:47.888Z,1.91
2023-01-03T21:40:50.411Z,1.93
2023-01-03T21:44:03.492Z,1.76
2023-01-03T21:47:05.952Z,1.72
2023-01-03T21:50:09.168Z,1.58
2023-01-03T21:53:18.696Z,1.44
2023-01-03T21:56:22.992Z,1.56
2023-01-03T21:59:25.382Z,1.29
2023-01-03T22:02:46.813Z,1.14
2023-01-03T22:05:49.272Z,1.11
2023-01-03T22:08:51.842Z,0.93
2023-01-03T22:11:54.272Z,0.84
2023-01-03T22:14:56.586Z,0.91
2023-01-03T22:17:58.913Z,0.89
2023-01-03T22:21:09.626Z,1.02
2023-01-03T22:24:12.011Z,0.88
2023-01-03T22:27:14.332Z,0.88
2023-01-03T22:30:19.139Z,0.91
2023-01-03T22:33:21.471Z,0.72
2023-01-03T22:36:23.837Z,0.84
2023-01-03T22:39:26.176Z,0.64
2023-01-03T22:42:28.604Z,0.63
2023-01-03T22:45:30.888Z,0.60
2023-01-03T22:48:33.378Z,0.60
2023-01-03T22:51:35.747Z,0.60
2023-01-03T22:54:39.259Z,0.47
2023-01-03T22:57:41.572Z,0.72
2023-01-03T23:00:46.219Z,0.80
2023-01-03T23:03:48.879Z,0.76
2023-01-03T23:06:51.190Z,0.77
2023-01-03T23:09:53.653Z,0.73
2023-01-03T23:12:59.019Z,0.83
2023-01-03T23:16:02.441Z,0.90
2023-01-03T23:19:07.654Z,0.82
2023-01-03T23:22:09.969Z,0.74
2023-01-03T23:25:12.237Z,0.63
2023-01-03T23:28:14.498Z,0.50
2023-01-03T23:31:16.878Z,0.47
2023-01-03T23:34:19.307Z,0.49
2023-01-03T23:37:21.600Z,0.53
2023-01-03T23:40:24.030Z,0.56
2023-01-03T23:43:26.395Z,0.60
2023-01-03T23:46:28.904Z,0.54
2023-01-03T23:49:31.420Z,0.46
2023-01-03T23:52:34.390Z,0.40
2023-01-03T23:55:36.859Z,0.37
2023-01-03T23:58:39.241Z,0.40
